Time;durP1;ratioP1;P1;durP2;ratioP2;P2;SDS_P1;SDS_P2;PMS_P1;PMS_P2;Temp;Humidity;BMP_temperature;BMP_pressure;BME280_temperature;BME280_humidity;BME280_pressure;Samples;Min_cycle;Max_cycle;Signal;HPM_P1;HPM_P2
2022/11/17 00:00:31;;;;;;;10.52;7.70;;;;;;;9.95;50.84;100250.41;5038484;27;97192;-67
2022/11/17 00:02:57;;;;;;;9.82;7.47;;;;;;;10.17;50.46;100254.84;5037141;27;99037;-67
2022/11/17 00:05:25;;;;;;;11.30;8.13;;;;;;;10.18;50.36;100260.03;5039704;27;97632;-68
2022/11/17 00:07:51;;;;;;;10.52;8.00;;;;;;;10.34;49.76;100255.84;5039785;27;96784;-67
2022/11/17 00:10:18;;;;;;;10.70;8.45;;;;;;;10.29;49.48;100251.69;5041879;27;96810;-67
2022/11/17 00:15:29;;;;;;;10.38;8.15;;;;;;;10.11;50.03;100253.25;5043795;27;97103;-68
2022/11/17 00:23:22;;;;;;;11.95;8.15;;;;;;;9.86;50.89;100241.97;5039382;27;97110;-67
2022/11/17 00:25:48;;;;;;;12.05;8.77;;;;;;;9.93;50.71;100232.91;5041666;27;98772;-66
2022/11/17 00:28:15;;;;;;;13.45;8.35;;;;;;;9.86;50.78;100242.84;5047903;27;96834;-68
2022/11/17 00:36:11;;;;;;;11.60;8.48;;;;;;;10.11;50.16;100244.50;5041515;27;97560;-68
2022/11/17 00:38:37;;;;;;;12.13;8.48;;;;;;;9.92;50.29;100239.09;5037469;27;97407;-67
2022/11/17 00:41:03;;;;;;;11.95;8.23;;;;;;;10.08;50.42;100236.69;5044748;27;97714;-68
2022/11/17 00:43:30;;;;;;;11.63;8.98;;;;;;;10.08;49.96;100237.56;5044807;27;98898;-68
2022/11/17 00:45:56;;;;;;;13.23;8.98;;;;;;;10.24;49.45;100230.72;5038543;27;99069;-68
2022/11/17 00:48:23;;;;;;;12.02;8.60;;;;;;;10.06;49.71;100218.28;5041952;27;98722;-68
2022/11/17 00:50:49;;;;;;;12.88;8.25;;;;;;;10.21;49.66;100222.94;5042109;27;97267;-69
2022/11/17 00:53:17;;;;;;;12.27;8.57;;;;;;;9.96;49.91;100224.88;5044615;27;99206;-70
2022/11/17 00:55:44;;;;;;;15.00;9.07;;;;;;;10.13;49.52;100219.72;5040604;27;98909;-71
2022/11/17 00:58:10;;;;;;;11.07;8.30;;;;;;;9.95;49.79;100220.50;5042178;27;98815;-69
2022/11/17 01:00:36;;;;;;;9.40;7.57;;;;;;;9.88;49.97;100229.59;5037963;27;97987;-69
2022/11/17 01:03:03;;;;;;;11.98;9.02;;;;;;;9.83;50.02;100219.22;5043572;27;98954;-70
2022/11/17 01:05:29;;;;;;;11.18;8.77;;;;;;;9.92;49.80;100221.47;5039602;27;99185;-70
2022/11/17 01:07:56;;;;;;;12.52;8.60;;;;;;;9.97;49.91;100224.81;5047438;27;96793;-70
2022/11/17 01:10:24;;;;;;;11.45;7.65;;;;;;;9.99;49.78;100222.94;5041199;27;98786;-69
2022/11/17 01:12:50;;;;;;;11.25;7.20;;;;;;;10.07;49.56;100229.69;5045520;27;98939;-68
2022/11/17 01:15:17;;;;;;;9.85;7.03;;;;;;;10.02;49.20;100221.09;5041997;27;98775;-67
2022/11/17 01:17:44;;;;;;;10.32;7.35;;;;;;;9.88;49.47;100219.91;5049820;27;97266;-69
2022/11/17 01:20:10;;;;;;;7.90;6.90;;;;;;;9.75;49.85;100218.69;5040368;27;98509;-69
2022/11/17 01:22:37;;;;;;;11.50;7.80;;;;;;;9.69;50.09;100218.94;5053818;27;99081;-69
2022/11/17 01:25:04;;;;;;;12.32;8.23;;;;;;;9.63;50.42;100220.94;5043648;27;97776;-68
2022/11/17 01:27:31;;;;;;;8.02;7.20;;;;;;;9.70;50.14;100222.44;5046041;27;97010;-69
2022/11/17 01:29:58;;;;;;;11.10;8.43;;;;;;;9.72;49.82;100223.19;5045374;27;96766;-68
2022/11/17 01:32:24;;;;;;;10.93;7.20;;;;;;;9.54;50.36;100216.88;5047367;27;99249;-68
2022/11/17 01:34:51;;;;;;;10.23;7.60;;;;;;;9.54;50.27;100214.25;5045357;27;98682;-67
2022/11/17 01:37:20;;;;;;;11.63;7.75;;;;;;;9.71;49.68;100213.59;5043507;27;97340;-67
2022/11/17 01:39:49;;;;;;;11.00;7.70;;;;;;;9.48;50.39;100212.72;5042191;27;98649;-68
2022/11/17 01:42:18;;;;;;;14.38;8.05;;;;;;;9.48;50.40;100201.31;5048393;27;98060;-69
2022/11/17 01:44:56;;;;;;;14.98;8.02;;;;;;;9.47;50.10;100202.22;5040052;27;99019;-68
2022/11/17 01:47:28;;;;;;;10.45;7.90;;;;;;;9.48;50.39;100202.16;5042217;27;97229;-69
2022/11/17 01:49:58;;;;;;;11.95;8.52;;;;;;;9.50;50.40;100192.44;5041591;27;97632;-68
2022/11/17 01:52:25;;;;;;;13.50;8.13;;;;;;;9.70;49.78;100191.63;5040359;27;98850;-67
2022/11/17 01:54:53;;;;;;;10.30;7.15;;;;;;;9.71;49.59;100188.06;5044104;27;99197;-68
2022/11/17 01:57:24;;;;;;;12.85;7.47;;;;;;;9.79;49.42;100187.72;5044401;27;98309;-69
2022/11/17 01:59:57;;;;;;;9.77;7.90;;;;;;;9.45;49.77;100188.25;5049415;27;97149;-68
2022/11/17 02:02:23;;;;;;;12.40;7.95;;;;;;;9.48;50.11;100194.25;5043684;27;98179;-68
2022/11/17 02:04:58;;;;;;;10.32;7.53;;;;;;;9.56;49.93;100191.31;5042852;27;99272;-67
2022/11/17 02:07:26;;;;;;;12.13;8.38;;;;;;;9.71;49.90;100196.00;5039419;27;98373;-67
2022/11/17 02:09:53;;;;;;;10.77;7.93;;;;;;;9.56;49.97;100191.31;5041075;27;99061;-67
2022/11/17 02:12:22;;;;;;;11.85;7.50;;;;;;;9.72;49.82;100196.81;5041553;27;100079;-69
2022/11/17 02:14:49;;;;;;;13.57;7.88;;;;;;;9.83;49.29;100189.34;5049278;27;98930;-67
2022/11/17 02:17:20;;;;;;;12.15;8.27;;;;;;;9.89;49.14;100189.94;5039505;27;96830;-68
2022/11/17 02:19:56;;;;;;;10.00;7.63;;;;;;;9.86;48.98;100197.13;5043348;27;96824;-68
2022/11/17 02:22:51;;;;;;;10.93;8.00;;;;;;;9.62;49.50;100191.06;5049403;27;98967;-68
2022/11/17 02:25:41;;;;;;;12.65;8.30;;;;;;;9.73;49.50;100188.84;5046017;27;98217;-68
2022/11/17 02:28:17;;;;;;;12.68;8.63;;;;;;;9.49;49.76;100187.22;5043342;27;100242;-68
2022/11/17 02:30:55;;;;;;;8.07;6.20;;;;;;;9.70;49.61;100181.06;5039982;27;96930;-68
2022/11/17 02:33:30;;;;;;;11.68;9.00;;;;;;;9.18;50.56;100188.41;5046157;27;99083;-67
2022/11/17 02:36:03;;;;;;;9.27;6.95;;;;;;;8.93;51.36;100179.69;5045665;27;98499;-68
2022/11/17 02:38:39;;;;;;;12.30;8.13;;;;;;;8.87;51.61;100176.44;5041907;27;96763;-69
2022/11/17 02:41:12;;;;;;;11.55;8.73;;;;;;;9.07;51.20;100176.53;5040450;27;98699;-68
2022/11/17 02:44:04;;;;;;;11.25;8.77;;;;;;;9.46;50.43;100169.72;5043447;27;98959;-68
2022/11/17 02:46:39;;;;;;;13.32;8.63;;;;;;;9.24;50.69;100173.28;5042825;27;99365;-68
2022/11/17 02:49:13;;;;;;;12.45;8.85;;;;;;;9.24;50.71;100181.19;5039115;27;99149;-68
2022/11/17 02:51:42;;;;;;;12.10;8.80;;;;;;;9.31;50.73;100159.78;5042098;27;98019;-67
2022/11/17 02:54:09;;;;;;;12.25;9.02;;;;;;;9.18;50.53;100159.41;5046406;27;100961;-68
2022/11/17 02:56:40;;;;;;;11.20;9.07;;;;;;;9.55;49.87;100157.94;5040349;27;99404;-67
2022/11/17 02:59:09;;;;;;;14.15;8.77;;;;;;;9.47;49.81;100160.88;5048759;27;96687;-67
2022/11/17 03:02:05;;;;;;;13.77;9.40;;;;;;;9.30;50.12;100152.81;5044220;27;98955;-67
2022/11/17 03:04:45;;;;;;;12.93;9.50;;;;;;;9.21;50.76;100150.50;5037887;27;98759;-67
2022/11/17 03:07:26;;;;;;;13.13;8.30;;;;;;;9.43;50.14;100159.31;5042546;27;98871;-67
2022/11/17 03:10:03;;;;;;;11.95;8.27;;;;;;;9.26;50.60;100156.47;5041576;27;96896;-68
2022/11/17 03:12:39;;;;;;;12.63;8.65;;;;;;;8.92;51.36;100151.66;5038672;27;96788;-68
2022/11/17 03:15:17;;;;;;;12.93;8.75;;;;;;;8.92;51.43;100156.06;5038033;27;99198;-68
2022/11/17 03:17:49;;;;;;;11.82;8.63;;;;;;;9.11;51.27;100152.66;5042478;27;99120;-68
2022/11/17 03:20:20;;;;;;;14.00;8.90;;;;;;;9.24;50.81;100147.78;5037981;27;97113;-67
2022/11/17 03:22:54;;;;;;;11.25;8.07;;;;;;;9.30;50.42;100141.41;5042841;27;97206;-68
2022/11/17 03:25:23;;;;;;;12.45;8.45;;;;;;;9.48;49.98;100143.28;5045023;27;99182;-67
2022/11/17 03:27:53;;;;;;;12.23;8.75;;;;;;;9.45;49.77;100133.72;5042721;27;98916;-68
2022/11/17 03:30:21;;;;;;;13.48;9.38;;;;;;;9.65;49.32;100143.44;5037003;27;97064;-68
2022/11/17 03:32:52;;;;;;;10.77;7.88;;;;;;;9.42;50.13;100146.19;5040348;27;96875;-67
2022/11/17 03:35:23;;;;;;;11.77;8.45;;;;;;;9.41;49.87;100144.44;5044783;27;100141;-68
2022/11/17 03:37:53;;;;;;;16.13;8.73;;;;;;;9.33;49.98;100149.16;5041012;27;98652;-68
2022/11/17 03:40:27;;;;;;;10.82;7.82;;;;;;;9.28;50.13;100148.50;5044795;27;96808;-67
2022/11/17 03:42:58;;;;;;;12.23;8.55;;;;;;;9.33;50.04;100142.13;5038228;27;96679;-68
2022/11/17 03:45:28;;;;;;;11.10;8.38;;;;;;;9.40;49.94;100145.38;5041936;27;99001;-67
2022/11/17 03:47:59;;;;;;;11.95;8.88;;;;;;;9.32;50.13;100140.41;5038860;27;99232;-67
2022/11/17 03:50:31;;;;;;;11.23;8.35;;;;;;;9.30;50.62;100142.25;5040078;27;97692;-67
2022/11/17 03:52:58;;;;;;;14.30;9.05;;;;;;;9.26;50.41;100140.63;5044239;27;96790;-68
2022/11/17 03:55:33;;;;;;;12.35;8.75;;;;;;;9.44;50.11;100139.94;5043569;27;99266;-67
2022/11/17 03:58:05;;;;;;;12.32;7.68;;;;;;;9.51;50.27;100140.53;5044625;27;99214;-69
2022/11/17 04:00:34;;;;;;;11.02;8.10;;;;;;;9.58;49.74;100137.56;5043136;27;96887;-68
2022/11/17 04:03:01;;;;;;;13.68;8.63;;;;;;;9.61;49.68;100128.69;5040957;27;98487;-68
2022/11/17 04:05:33;;;;;;;12.98;8.60;;;;;;;9.35;50.16;100129.75;5045433;27;99048;-72
2022/11/17 04:07:59;;;;;;;11.55;8.27;;;;;;;9.59;49.96;100126.09;5038461;27;101402;-68
2022/11/17 04:10:25;;;;;;;12.73;9.07;;;;;;;9.38;50.54;100134.03;5043581;27;96907;-68
2022/11/17 04:15:57;;;;;;;11.90;9.07;;;;;;;9.52;50.15;100142.22;5036637;27;97193;-71
2022/11/17 04:18:25;;;;;;;12.63;9.68;;;;;;;9.36;50.62;100136.75;5042595;27;98938;-69
2022/11/17 04:20:53;;;;;;;14.70;10.05;;;;;;;9.48;50.21;100122.19;5039996;27;97272;-69
2022/11/17 04:23:19;;;;;;;12.05;9.38;;;;;;;9.44;50.49;100115.34;5043544;27;96749;-71
2022/11/17 04:28:36;;;;;;;12.50;9.50;;;;;;;9.18;51.35;100113.75;5040462;27;97005;-69
2022/11/17 04:31:05;;;;;;;14.38;9.20;;;;;;;9.28;51.08;100119.50;5035640;27;97062;-69
2022/11/17 04:33:32;;;;;;;12.85;8.90;;;;;;;9.20;51.47;100114.53;5039853;27;98924;-69
2022/11/17 04:35:58;;;;;;;13.20;10.07;;;;;;;9.22;51.27;100112.69;5043457;27;99482;-69
2022/11/17 04:38:25;;;;;;;14.63;9.13;;;;;;;9.25;51.50;100109.94;5034350;27;100745;-69
2022/11/17 04:43:37;;;;;;;14.07;9.50;;;;;;;9.41;51.36;100115.44;5034942;27;97387;-68
2022/11/17 04:46:06;;;;;;;12.98;8.85;;;;;;;9.45;51.28;100109.16;5042666;27;101402;-69
2022/11/17 04:48:32;;;;;;;12.90;9.70;;;;;;;9.32;51.50;100100.03;5034387;27;97638;-69
2022/11/17 04:50:58;;;;;;;14.95;9.98;;;;;;;9.48;50.94;100104.59;5036073;27;96847;-69
2022/11/17 04:53:25;;;;;;;13.77;9.50;;;;;;;9.44;51.25;100103.00;5043247;27;98692;-69
2022/11/17 04:55:51;;;;;;;14.90;9.85;;;;;;;9.57;51.24;100098.09;5041696;27;100963;-69
2022/11/17 04:58:18;;;;;;;14.40;10.02;;;;;;;9.54;51.17;100101.69;5046557;27;98914;-71
2022/11/17 05:00:44;;;;;;;15.55;10.20;;;;;;;9.50;50.96;100107.19;5043671;27;97164;-69
2022/11/17 05:03:12;;;;;;;14.00;9.55;;;;;;;9.74;50.72;100094.72;5043920;27;96900;-69
2022/11/17 05:05:38;;;;;;;14.90;9.82;;;;;;;9.56;50.72;100105.13;5041876;27;98105;-69
2022/11/17 05:08:05;;;;;;;14.82;9.75;;;;;;;9.74;50.76;100097.38;5038958;27;99434;-70
2022/11/17 05:13:23;;;;;;;14.65;9.93;;;;;;;9.73;50.53;100101.78;5049135;27;97432;-69
2022/11/17 05:18:35;;;;;;;15.32;9.68;;;;;;;9.26;51.69;100101.09;5050596;27;97552;-69
2022/11/17 05:21:02;;;;;;;16.30;10.75;;;;;;;9.45;51.38;100088.06;5050854;27;96842;-71
2022/11/17 05:26:12;;;;;;;13.10;9.50;;;;;;;9.40;51.64;100087.34;5041457;27;97277;-69
2022/11/17 05:28:39;;;;;;;16.77;9.75;;;;;;;9.46;51.54;100089.75;5047584;27;98824;-71
2022/11/17 05:31:06;;;;;;;15.63;9.70;;;;;;;9.57;50.82;100074.34;5045607;27;98566;-70
2022/11/17 05:33:32;;;;;;;14.85;10.15;;;;;;;9.55;51.66;100063.00;5042574;27;96876;-72
2022/11/17 05:36:00;;;;;;;15.68;9.95;;;;;;;9.48;51.51;100054.47;5038844;27;98843;-70
2022/11/17 05:38:27;;;;;;;15.55;10.90;;;;;;;9.61;51.33;100068.00;5038914;27;98873;-69
2022/11/17 05:40:53;;;;;;;13.90;9.57;;;;;;;9.50;51.34;100067.63;5044392;27;96727;-70
2022/11/17 05:43:19;;;;;;;15.07;10.55;;;;;;;9.44;51.69;100057.31;5043759;27;97871;-69
2022/11/17 05:45:46;;;;;;;15.50;10.18;;;;;;;9.56;51.28;100062.06;5044112;27;99198;-69
2022/11/17 05:48:13;;;;;;;15.57;9.95;;;;;;;9.77;51.03;100063.81;5035399;27;99474;-69
2022/11/17 05:50:39;;;;;;;15.13;9.65;;;;;;;9.48;51.37;100056.25;5045907;27;99291;-69
2022/11/17 05:53:07;;;;;;;14.38;10.77;;;;;;;9.50;51.53;100064.97;5040481;27;98730;-69
2022/11/17 05:55:34;;;;;;;14.63;10.40;;;;;;;9.58;51.58;100065.53;5041465;27;99152;-70
2022/11/17 05:58:04;;;;;;;13.95;10.30;;;;;;;9.65;51.45;100055.56;5040938;27;99363;-70
2022/11/17 06:00:31;;;;;;;12.88;10.00;;;;;;;9.54;51.89;100063.91;5043802;27;96772;-69
2022/11/17 06:03:03;;;;;;;15.52;10.48;;;;;;;9.59;51.62;100068.06;5040453;27;97068;-71
2022/11/17 06:05:30;;;;;;;15.60;10.63;;;;;;;9.53;52.00;100056.91;5048068;27;99294;-71
2022/11/17 06:07:57;;;;;;;15.30;10.23;;;;;;;9.60;51.69;100068.94;5035471;27;99255;-69
2022/11/17 06:10:26;;;;;;;17.90;9.75;;;;;;;9.51;51.75;100070.19;5037487;27;97570;-69
2022/11/17 06:12:53;;;;;;;17.17;10.50;;;;;;;9.70;51.52;100067.63;5041536;27;96845;-69
2022/11/17 06:15:20;;;;;;;16.13;10.95;;;;;;;9.67;51.54;100065.09;5040081;27;98769;-70
2022/11/17 06:17:50;;;;;;;16.17;10.05;;;;;;;9.85;51.40;100050.25;5043062;27;98932;-70
2022/11/17 06:20:21;;;;;;;16.27;9.77;;;;;;;9.78;51.42;100054.94;5037239;27;96809;-70
2022/11/17 06:22:49;;;;;;;14.38;10.60;;;;;;;9.89;50.79;100057.16;5038037;27;97460;-69
2022/11/17 06:25:17;;;;;;;17.42;10.85;;;;;;;9.99;50.63;100064.56;5040345;27;99283;-71
2022/11/17 06:27:48;;;;;;;15.55;10.98;;;;;;;9.85;51.16;100056.41;5042221;27;98817;-70
2022/11/17 06:30:14;;;;;;;16.45;10.77;;;;;;;9.77;51.15;100053.25;5040392;27;98091;-70
2022/11/17 06:32:45;;;;;;;14.32;11.02;;;;;;;9.81;51.36;100052.19;5042651;27;97025;-71
2022/11/17 06:35:15;;;;;;;14.38;10.50;;;;;;;9.79;51.25;100056.66;5036917;27;99057;-71
2022/11/17 06:37:41;;;;;;;16.20;10.65;;;;;;;9.97;50.86;100053.25;5043908;27;99341;-71
2022/11/17 06:40:12;;;;;;;14.38;10.45;;;;;;;9.91;51.02;100048.22;5040589;27;98759;-70
2022/11/17 06:45:24;;;;;;;13.13;9.88;;;;;;;9.64;51.74;100046.78;5039985;27;97425;-70
2022/11/17 06:47:55;;;;;;;15.75;10.75;;;;;;;9.66;51.58;100044.06;5044156;27;99025;-71
2022/11/17 06:50:22;;;;;;;15.65;11.15;;;;;;;9.83;51.35;100031.88;5041027;27;97114;-70
2022/11/17 06:52:49;;;;;;;15.80;11.02;;;;;;;10.08;50.99;100042.22;5045160;27;96916;-70
2022/11/17 06:55:17;;;;;;;16.60;10.30;;;;;;;10.04;50.76;100029.22;5040325;27;99265;-70
2022/11/17 06:57:44;;;;;;;18.45;11.05;;;;;;;9.99;50.77;100030.25;5050294;27;98251;-70
2022/11/17 07:00:11;;;;;;;14.35;10.75;;;;;;;10.07;50.54;100024.66;5035610;27;96933;-70
2022/11/17 07:02:39;;;;;;;13.52;10.13;;;;;;;10.15;50.34;100024.31;5042369;27;97175;-71
2022/11/17 07:05:06;;;;;;;13.57;10.30;;;;;;;10.24;50.16;100022.13;5040357;27;101106;-70
2022/11/17 07:07:32;;;;;;;15.15;10.30;;;;;;;10.05;50.65;100020.34;5041285;27;99240;-69
2022/11/17 07:09:59;;;;;;;15.23;10.00;;;;;;;9.97;50.75;100023.38;5037980;27;97026;-69
2022/11/17 07:12:26;;;;;;;12.50;9.95;;;;;;;9.75;51.21;100019.94;5039969;27;97225;-67
2022/11/17 07:14:53;;;;;;;14.73;9.98;;;;;;;9.59;51.84;100012.69;5040642;27;99336;-68
2022/11/17 07:17:20;;;;;;;20.05;10.07;;;;;;;9.92;51.41;100012.97;5041181;27;102320;-67
2022/11/17 07:19:47;;;;;;;14.52;9.57;;;;;;;9.56;52.04;100011.97;5042732;27;97994;-69
2022/11/17 07:22:14;;;;;;;14.45;10.10;;;;;;;9.61;51.70;100015.25;5039937;27;96887;-68
2022/11/17 07:24:41;;;;;;;13.15;10.02;;;;;;;9.80;51.38;100013.53;5040194;27;100493;-70
2022/11/17 07:27:07;;;;;;;13.55;9.95;;;;;;;9.80;51.03;100021.44;5046809;27;98874;-67
2022/11/17 07:29:36;;;;;;;12.80;9.10;;;;;;;9.71;51.44;100021.88;5043239;27;96865;-67
2022/11/17 07:32:03;;;;;;;13.20;9.10;;;;;;;9.86;51.24;100015.03;5047256;27;96799;-67
2022/11/17 07:34:30;;;;;;;14.65;10.00;;;;;;;9.91;50.79;100007.81;5048176;27;99234;-68
2022/11/17 07:36:58;;;;;;;11.63;9.43;;;;;;;10.03;50.50;100011.66;5047134;27;98869;-68
2022/11/17 07:39:24;;;;;;;14.70;8.32;;;;;;;9.93;50.34;100021.75;5046135;27;96718;-69
2022/11/17 07:41:51;;;;;;;12.65;9.68;;;;;;;10.13;50.02;100023.50;5042531;27;96883;-68
2022/11/17 07:44:18;;;;;;;14.32;9.23;;;;;;;10.22;50.21;100031.06;5037778;27;98903;-67
2022/11/17 07:46:44;;;;;;;11.98;9.10;;;;;;;10.13;49.70;100024.38;5040453;27;99279;-69
2022/11/17 07:49:11;;;;;;;11.88;8.77;;;;;;;10.03;49.63;100035.44;5048350;27;96966;-69
2022/11/17 07:51:37;;;;;;;12.30;8.98;;;;;;;9.96;50.50;100026.91;5040998;27;96997;-69
2022/11/17 07:54:05;;;;;;;13.60;8.70;;;;;;;10.09;50.21;100032.50;5045353;27;99059;-69
2022/11/17 07:56:32;;;;;;;12.45;8.85;;;;;;;10.07;50.19;100023.78;5038877;27;97787;-68
2022/11/17 07:58:58;;;;;;;12.45;8.93;;;;;;;10.12;49.58;100024.44;5045527;27;96921;-68
2022/11/17 08:01:26;;;;;;;12.30;8.93;;;;;;;9.98;49.91;100025.03;5039229;27;97406;-69
2022/11/17 08:03:52;;;;;;;13.68;8.48;;;;;;;9.97;49.79;100024.22;5045009;27;99073;-72
2022/11/17 08:06:24;;;;;;;13.85;8.10;;;;;;;10.25;49.47;100021.22;5039090;27;98982;-68
2022/11/17 08:08:52;;;;;;;13.88;8.38;;;;;;;10.30;49.13;100015.75;5047888;27;96736;-68
2022/11/17 08:11:20;;;;;;;13.93;8.82;;;;;;;10.38;48.85;100014.44;5039311;27;96899;-69
2022/11/17 08:13:50;;;;;;;10.88;8.00;;;;;;;10.39;48.86;100013.50;5047526;27;98949;-68
2022/11/17 08:16:16;;;;;;;12.20;8.13;;;;;;;10.40;48.67;100009.09;5049782;27;99192;-67
2022/11/17 08:18:43;;;;;;;12.95;8.38;;;;;;;10.57;48.57;100019.72;5048964;27;96908;-68
2022/11/17 08:21:13;;;;;;;13.40;8.25;;;;;;;10.50;48.45;100015.66;5040264;27;97171;-70
2022/11/17 08:23:40;;;;;;;10.60;8.07;;;;;;;10.47;48.15;100005.25;5048041;27;99788;-69
2022/11/17 08:26:09;;;;;;;11.57;8.02;;;;;;;10.23;48.65;100004.59;5039985;27;99516;-69
2022/11/17 08:28:37;;;;;;;10.52;8.00;;;;;;;10.37;48.39;99998.69;5043330;27;96663;-69
2022/11/17 08:31:05;;;;;;;11.63;8.32;;;;;;;10.23;48.85;100001.09;5039427;27;96904;-69
2022/11/17 08:33:32;;;;;;;10.25;7.75;;;;;;;10.16;49.29;100004.91;5044122;27;99029;-69
2022/11/17 08:35:59;;;;;;;11.60;8.60;;;;;;;10.38;48.97;99997.72;5041976;27;97610;-70
2022/11/17 08:38:27;;;;;;;11.10;7.63;;;;;;;10.61;48.14;100005.44;5045186;27;96816;-69
2022/11/17 08:40:54;;;;;;;15.55;8.18;;;;;;;10.57;47.75;99998.59;5042594;27;97589;-70
2022/11/17 08:43:21;;;;;;;10.68;8.02;;;;;;;10.65;47.99;99995.59;5044970;27;99090;-69
2022/11/17 08:45:50;;;;;;;12.85;8.75;;;;;;;10.17;48.98;99993.47;5051435;27;100665;-68
2022/11/17 08:48:16;;;;;;;12.85;8.95;;;;;;;10.13;49.24;99991.84;5048485;27;98414;-68
2022/11/17 08:50:42;;;;;;;13.63;9.18;;;;;;;10.28;49.13;99991.19;5048705;27;97616;-68
2022/11/17 08:53:14;;;;;;;15.23;8.70;;;;;;;10.35;48.91;99984.69;5048022;27;99042;-71
2022/11/17 08:55:41;;;;;;;15.00;9.25;;;;;;;10.62;48.37;99986.03;5049765;27;99304;-70
2022/11/17 08:58:08;;;;;;;15.13;9.45;;;;;;;10.68;48.02;99984.88;5046777;27;97107;-71
2022/11/17 09:00:34;;;;;;;12.65;9.48;;;;;;;10.33;48.60;99987.41;5051190;27;96960;-72
2022/11/17 09:03:05;;;;;;;14.57;8.93;;;;;;;10.34;48.94;99994.38;5040507;27;99349;-71
2022/11/17 09:05:34;;;;;;;13.32;9.05;;;;;;;10.46;48.35;99994.75;5050512;27;99591;-72
2022/11/17 09:08:00;;;;;;;13.00;8.63;;;;;;;10.34;48.94;99999.66;5041290;27;97933;-70
2022/11/17 09:10:27;;;;;;;15.20;10.07;;;;;;;10.45;48.65;100001.81;5044235;27;97072;-71
2022/11/17 09:12:55;;;;;;;14.30;9.02;;;;;;;10.30;49.04;100006.03;5042092;27;98830;-71
2022/11/17 09:15:22;;;;;;;15.23;8.85;;;;;;;10.37;49.00;100010.06;5046653;27;99076;-70
2022/11/17 09:17:48;;;;;;;15.13;10.05;;;;;;;10.43;48.70;100013.38;5042645;27;97369;-71
2022/11/17 09:20:17;;;;;;;14.63;9.63;;;;;;;10.48;48.94;100014.88;5046284;27;97484;-71
2022/11/17 09:22:44;;;;;;;16.52;10.02;;;;;;;10.36;49.09;100010.16;5044873;27;99260;-71
2022/11/17 09:25:10;;;;;;;14.18;9.70;;;;;;;10.48;48.78;100014.88;5043035;27;101011;-70
2022/11/17 09:27:37;;;;;;;13.52;10.10;;;;;;;10.55;48.51;100016.31;5044523;27;96843;-71
2022/11/17 09:30:04;;;;;;;16.90;10.40;;;;;;;10.64;48.64;100013.22;5046008;27;97996;-71
2022/11/17 09:32:34;;;;;;;16.85;9.85;;;;;;;10.82;48.08;100010.66;5042837;27;100674;-71
2022/11/17 09:35:02;;;;;;;17.88;10.45;;;;;;;10.66;48.65;100007.88;5045355;27;99512;-73
2022/11/17 09:37:31;;;;;;;16.00;9.95;;;;;;;10.73;48.16;100009.28;5045561;27;96890;-72
2022/11/17 09:39:57;;;;;;;17.10;11.50;;;;;;;10.76;48.19;100009.97;5038924;27;97679;-70
2022/11/17 09:42:24;;;;;;;16.02;10.80;;;;;;;10.61;48.59;100013.38;5035846;27;99322;-71
2022/11/17 09:44:55;;;;;;;18.88;11.55;;;;;;;10.48;48.64;100009.59;5040021;27;99305;-71
2022/11/17 09:47:32;;;;;;;17.52;10.48;;;;;;;10.59;48.65;100004.66;5038796;27;96752;-69
2022/11/17 09:50:03;;;;;;;16.52;10.45;;;;;;;10.82;48.20;99994.78;5043176;27;97558;-69
2022/11/17 09:52:36;;;;;;;14.68;9.75;;;;;;;10.85;47.93;99995.47;5036908;27;98998;-68
2022/11/17 09:55:24;;;;;;;19.35;10.93;;;;;;;10.49;49.04;99990.19;5043249;27;100376;-67
2022/11/17 09:58:00;;;;;;;17.35;10.90;;;;;;;10.62;48.87;100009.81;5046558;27;96637;-69
2022/11/17 10:00:27;;;;;;;17.93;12.03;;;;;;;10.54;49.18;100006.66;5039154;27;96866;-68
2022/11/17 10:02:54;;;;;;;19.15;10.65;;;;;;;10.44;49.45;100002.72;5043563;27;98317;-69
2022/11/17 10:05:27;;;;;;;17.17;10.63;;;;;;;10.31;49.76;100012.13;5044857;27;99932;-70
2022/11/17 10:07:59;;;;;;;16.80;11.02;;;;;;;10.18;49.89;100005.72;5041390;27;97013;-71
2022/11/17 10:10:36;;;;;;;16.63;10.77;;;;;;;10.33;50.10;100000.59;5040536;27;97379;-68
2022/11/17 10:13:04;;;;;;;;;;;;;;;10.38;49.74;99997.72;5047386;27;98225;-69
2022/11/17 10:15:43;;;;;;;21.02;11.27;;;;;;;10.38;49.77;99992.44;5039111;27;99654;-68
2022/11/17 10:18:13;;;;;;;17.08;10.88;;;;;;;10.42;49.91;99988.75;5040396;27;96872;-72
2022/11/17 10:20:39;;;;;;;18.00;11.27;;;;;;;10.55;49.38;99991.69;5041676;27;98042;-69
2022/11/17 10:23:13;;;;;;;21.48;11.15;;;;;;;10.63;48.99;99997.47;5044838;27;101449;-69
2022/11/17 10:25:42;;;;;;;18.15;12.25;;;;;;;10.71;48.50;99990.00;5040766;27;99201;-68
2022/11/17 10:28:22;;;;;;;19.15;12.57;;;;;;;10.58;48.96;99980.94;5047085;27;97323;-68
2022/11/17 10:30:53;;;;;;;18.73;12.15;;;;;;;10.57;49.18;99977.44;5037682;27;99211;-69
2022/11/17 10:33:33;;;;;;;17.75;11.27;;;;;;;10.71;49.01;99976.78;5046273;27;101153;-68
2022/11/17 10:36:00;;;;;;;16.50;10.73;;;;;;;10.70;48.96;99968.00;5042247;27;98191;-68
2022/11/17 10:38:29;;;;;;;17.38;11.43;;;;;;;10.64;49.24;99963.03;5038716;27;96790;-69
2022/11/17 10:40:59;;;;;;;15.77;11.00;;;;;;;10.57;49.38;99977.44;5044721;27;97195;-68
2022/11/17 10:43:28;;;;;;;21.67;11.38;;;;;;;10.76;48.61;99966.88;5039712;27;98920;-69
2022/11/17 10:45:58;;;;;;;17.20;11.10;;;;;;;10.57;49.08;99960.75;5039520;27;99441;-69
2022/11/17 10:48:28;;;;;;;20.50;10.77;;;;;;;10.72;48.65;99954.72;5034329;27;96949;-69
2022/11/17 10:50:56;;;;;;;16.10;10.68;;;;;;;10.46;49.18;99957.75;5042567;27;96928;-69
2022/11/17 10:53:35;;;;;;;17.88;10.63;;;;;;;10.34;49.58;99959.19;5042377;27;99004;-68
2022/11/17 10:56:06;;;;;;;22.00;12.05;;;;;;;10.47;49.34;99960.34;5040171;27;100105;-69
2022/11/17 10:58:52;;;;;;;21.10;9.70;;;;;;;10.49;49.20;99952.34;5043990;27;96746;-69
2022/11/17 11:01:28;;;;;;;16.73;10.80;;;;;;;10.67;49.17;99946.19;5041331;27;97745;-70
2022/11/17 11:03:54;;;;;;;14.77;9.88;;;;;;;10.74;48.46;99953.72;5043356;27;99335;-69
2022/11/17 11:06:23;;;;;;;20.25;11.82;;;;;;;10.54;49.21;99932.69;5041576;27;98752;-68
2022/11/17 11:08:58;;;;;;;25.05;10.85;;;;;;;10.66;48.84;99918.91;5041160;27;96937;-68
2022/11/17 11:11:41;;;;;;;15.13;10.75;;;;;;;10.45;49.32;99929.63;5046391;27;96843;-70
2022/11/17 11:14:16;;;;;;;17.40;10.88;;;;;;;10.47;49.65;99926.00;5042320;27;98806;-69
2022/11/17 11:16:46;;;;;;;15.30;10.32;;;;;;;10.47;49.30;99919.84;5045064;27;98731;-69
2022/11/17 11:19:15;;;;;;;16.70;11.00;;;;;;;10.50;49.31;99923.19;5043077;27;99515;-69
2022/11/17 11:22:12;;;;;;;15.60;10.75;;;;;;;10.54;49.17;99924.78;5037976;27;97929;-68
2022/11/17 11:24:50;;;;;;;14.75;10.45;;;;;;;10.63;48.98;99928.78;5044617;27;98532;-72
2022/11/17 11:27:34;;;;;;;14.57;9.52;;;;;;;10.61;48.91;99925.34;5040460;27;101426;-70
2022/11/17 11:30:04;;;;;;;17.23;10.15;;;;;;;10.57;49.21;99929.91;5038483;27;96767;-69
2022/11/17 11:32:43;;;;;;;18.70;10.07;;;;;;;10.61;49.00;99923.56;5041554;27;97720;-68
2022/11/17 11:35:52;;;;;;;13.50;9.50;;;;;;;10.94;48.45;99925.47;5037567;27;99072;-69
2022/11/17 11:38:31;;;;;;;15.18;9.07;;;;;;;10.76;48.30;99914.84;5035217;27;99234;-69
2022/11/17 11:41:16;;;;;;;21.48;10.55;;;;;;;10.64;48.60;99917.25;5045400;27;97427;-67
2022/11/17 11:43:56;;;;;;;17.73;10.27;;;;;;;10.58;48.91;99907.84;5038993;27;97388;-71
2022/11/17 11:46:33;;;;;;;14.75;10.02;;;;;;;10.56;48.93;99899.16;5031793;27;98172;-69
2022/11/17 11:49:11;;;;;;;14.07;9.88;;;;;;;10.68;48.90;99898.56;5034101;27;98880;-68
2022/11/17 11:51:39;;;;;;;14.43;9.73;;;;;;;10.70;48.72;99901.94;5034578;27;97099;-70
2022/11/17 11:54:12;;;;;;;14.70;9.38;;;;;;;10.78;48.55;99893.66;5036948;27;96836;-68
2022/11/17 11:56:43;;;;;;;14.10;9.98;;;;;;;10.82;48.48;99905.78;5034471;27;100086;-69
2022/11/17 11:59:18;;;;;;;13.85;9.57;;;;;;;10.87;47.94;99892.34;5039101;27;99302;-68
2022/11/17 12:01:53;;;;;;;13.60;9.40;;;;;;;10.90;48.00;99889.53;5039341;27;97271;-68
2022/11/17 12:04:27;;;;;;;13.23;9.52;;;;;;;10.85;48.23;99896.84;5039100;27;98795;-68
2022/11/17 12:07:01;;;;;;;22.17;10.25;;;;;;;10.98;47.89;99905.88;5040132;27;99036;-69